Time;durP1;ratioP1;P1;durP2;ratioP2;P2;SDS_P1;SDS_P2;PMS_P1;PMS_P2;Temp;Humidity;BMP_temperature;BMP_pressure;BME280_temperature;BME280_humidity;BME280_pressure;Samples;Min_cycle;Max_cycle;Signal;HPM_P1;HPM_P2
2023/04/14 00:01:15;;;;;;;22.67;13.30;;;;;;;6.00;80.23;100758.75;5071026;28;20387;-47
2023/04/14 00:03:41;;;;;;;20.35;13.77;;;;;;;5.91;80.18;100763.94;5073642;28;20033;-43
2023/04/14 00:06:06;;;;;;;19.92;12.68;;;;;;;5.86;80.32;100774.94;5073621;28;20032;-43
2023/04/14 00:08:32;;;;;;;21.90;13.40;;;;;;;5.78;80.70;100764.53;5073967;28;20039;-44
2023/04/14 00:10:57;;;;;;;20.17;12.65;;;;;;;5.73;81.14;100768.09;5073623;28;20028;-45
2023/04/14 00:13:22;;;;;;;21.23;13.38;;;;;;;5.69;81.32;100775.22;5073668;28;20032;-45
2023/04/14 00:15:48;;;;;;;20.20;12.73;;;;;;;5.56;81.91;100762.88;5073532;28;20028;-44
2023/04/14 00:18:13;;;;;;;19.45;12.85;;;;;;;5.59;81.97;100767.81;5073561;28;20029;-44
2023/04/14 00:20:38;;;;;;;20.42;12.80;;;;;;;5.57;81.63;100771.94;5073195;28;20082;-45
2023/04/14 00:23:03;;;;;;;21.95;13.30;;;;;;;5.51;81.87;100768.38;5072821;28;20020;-44
2023/04/14 00:25:29;;;;;;;20.05;12.88;;;;;;;5.49;81.98;100770.56;5072052;28;20082;-44
2023/04/14 00:27:54;;;;;;;21.38;13.70;;;;;;;5.39;81.75;100754.09;5073382;28;20055;-43
2023/04/14 00:30:20;;;;;;;20.70;12.80;;;;;;;5.49;81.61;100764.25;5073394;28;20025;-43
2023/04/14 00:32:45;;;;;;;21.77;12.85;;;;;;;5.48;81.79;100771.66;5073369;28;20086;-43
2023/04/14 00:35:10;;;;;;;21.40;12.95;;;;;;;5.44;81.73;100771.38;5073335;28;20020;-43
2023/04/14 00:37:35;;;;;;;20.90;13.88;;;;;;;5.38;81.64;100766.16;5073285;28;20141;-44
2023/04/14 00:40:01;;;;;;;21.73;13.38;;;;;;;5.42;82.17;100770.03;5073091;28;20059;-43
2023/04/14 00:42:26;;;;;;;19.88;13.13;;;;;;;5.42;81.76;100770.03;5073272;28;20024;-43
2023/04/14 00:44:52;;;;;;;21.98;13.77;;;;;;;5.40;81.70;100775.75;5073105;28;20473;-43
2023/04/14 00:47:17;;;;;;;22.52;14.20;;;;;;;5.37;81.48;100767.25;5072913;28;20441;-44
2023/04/14 00:49:43;;;;;;;20.67;12.77;;;;;;;5.35;81.24;100774.94;5072820;28;20071;-44
2023/04/14 00:52:09;;;;;;;21.38;13.32;;;;;;;5.35;81.90;100777.66;5072899;28;20060;-42
2023/04/14 00:54:36;;;;;;;21.80;12.75;;;;;;;5.33;81.20;100774.41;5072792;28;20040;-42
2023/04/14 00:57:04;;;;;;;20.48;12.70;;;;;;;5.26;81.59;100780.16;5072839;28;20465;-43
2023/04/14 00:59:29;;;;;;;21.42;13.13;;;;;;;5.15;81.98;100777.38;5072750;28;20047;-43
2023/04/14 01:01:55;;;;;;;22.00;13.07;;;;;;;5.17;81.54;100790.81;5072651;28;20115;-44
2023/04/14 01:04:21;;;;;;;18.90;12.50;;;;;;;5.15;81.35;100795.75;5068392;28;20492;-43
2023/04/14 01:06:47;;;;;;;20.80;13.07;;;;;;;5.15;82.22;100796.59;5072885;28;20044;-44
2023/04/14 01:09:14;;;;;;;22.48;13.43;;;;;;;5.10;81.88;100787.50;5072592;28;20473;-43
2023/04/14 01:12:20;;;;;;;20.27;13.32;;;;;;;5.17;81.75;100798.22;5072576;28;20024;-42
2023/04/14 01:15:07;;;;;;;21.80;13.68;;;;;;;5.10;82.31;100788.31;5072305;28;20350;-43
2023/04/14 01:17:42;;;;;;;23.40;14.15;;;;;;;5.07;82.18;100786.16;5072438;28;20113;-43
2023/04/14 01:20:29;;;;;;;21.30;13.48;;;;;;;5.13;81.58;100785.06;5072383;28;20041;-47
2023/04/14 01:23:04;;;;;;;19.88;12.82;;;;;;;5.12;81.42;100788.06;5072407;28;20048;-44
2023/04/14 01:25:59;;;;;;;20.58;13.13;;;;;;;5.10;81.69;100793.00;5072412;28;20073;-43
2023/04/14 01:28:27;;;;;;;21.27;13.00;;;;;;;5.09;81.56;100792.19;5048378;28;20106;-43
2023/04/14 01:31:03;;;;;;;23.02;13.23;;;;;;;5.09;81.47;100789.44;5072020;28;20025;-43
2023/04/14 01:33:35;;;;;;;20.90;12.95;;;;;;;5.11;82.35;100787.22;5071420;28;20056;-43
2023/04/14 01:36:05;;;;;;;21.65;12.25;;;;;;;5.08;81.31;100779.56;5072188;28;20051;-46
2023/04/14 01:38:33;;;;;;;21.23;12.85;;;;;;;5.06;81.38;100786.41;5072110;28;20167;-44
2023/04/14 01:41:04;;;;;;;19.52;12.20;;;;;;;5.02;81.63;100772.41;5072207;28;20030;-45
2023/04/14 01:43:32;;;;;;;19.35;12.65;;;;;;;5.05;81.41;100790.25;5069841;28;20052;-43
2023/04/14 01:46:02;;;;;;;20.73;12.35;;;;;;;5.05;81.70;100793.81;5069878;28;20040;-42
2023/04/14 01:48:29;;;;;;;18.85;11.93;;;;;;;5.05;81.84;100793.81;5072100;28;20036;-43
2023/04/14 01:50:57;;;;;;;19.63;12.13;;;;;;;5.04;81.17;100800.38;5071843;28;20024;-44
2023/04/14 01:53:24;;;;;;;20.42;12.63;;;;;;;4.98;81.48;100798.72;5071815;28;20056;-43
2023/04/14 01:55:51;;;;;;;19.55;12.20;;;;;;;4.95;81.95;100797.38;5071798;28;20029;-43
2023/04/14 01:58:18;;;;;;;19.52;12.55;;;;;;;4.93;81.61;100807.75;5071789;28;20025;-43
2023/04/14 02:00:44;;;;;;;21.27;12.93;;;;;;;4.92;81.90;100808.84;5071793;28;20033;-44
2023/04/14 02:03:10;;;;;;;19.10;11.80;;;;;;;4.89;81.63;100801.16;5071868;28;20038;-43
2023/04/14 02:05:38;;;;;;;20.58;12.00;;;;;;;4.79;81.96;100801.97;5066230;28;20035;-45
2023/04/14 02:08:11;;;;;;;19.48;11.88;;;;;;;4.81;82.09;100810.75;5071767;28;20039;-47
2023/04/14 02:10:40;;;;;;;19.60;12.25;;;;;;;4.75;82.20;100806.31;5071607;28;20498;-45
2023/04/14 02:13:07;;;;;;;20.02;12.55;;;;;;;4.75;82.53;100797.28;5070399;28;20024;-47
2023/04/14 02:15:33;;;;;;;21.70;12.45;;;;;;;4.78;82.54;100800.31;5071789;28;20387;-44
2023/04/14 02:18:01;;;;;;;20.85;11.82;;;;;;;4.76;82.60;100807.97;5071662;28;20028;-45
2023/04/14 02:20:27;;;;;;;20.25;12.23;;;;;;;4.75;83.19;100811.78;5070241;28;20055;-47
2023/04/14 02:22:53;;;;;;;19.80;12.60;;;;;;;4.72;83.16;100814.25;5071586;28;20102;-43
2023/04/14 02:25:22;;;;;;;19.33;11.90;;;;;;;4.67;83.43;100818.63;5071541;28;20041;-46
2023/04/14 02:27:53;;;;;;;20.58;12.30;;;;;;;4.57;82.96;100810.38;5071077;28;20024;-44
2023/04/14 02:30:29;;;;;;;20.15;11.88;;;;;;;4.52;83.51;100807.59;5071545;28;20033;-45
2023/04/14 02:33:05;;;;;;;21.15;12.98;;;;;;;4.54;83.69;100813.63;5071609;28;20016;-43
2023/04/14 02:35:38;;;;;;;18.83;12.80;;;;;;;4.47;83.30;100816.59;5071376;28;20036;-45
2023/04/14 02:38:13;;;;;;;22.50;12.88;;;;;;;4.55;83.62;100825.41;5071571;28;20166;-43
2023/04/14 02:40:41;;;;;;;20.05;12.23;;;;;;;4.46;83.32;100820.44;5071361;28;20039;-43
2023/04/14 02:43:11;;;;;;;22.65;12.77;;;;;;;4.51;83.88;100828.69;5069888;28;20037;-43
2023/04/14 02:45:39;;;;;;;19.30;12.73;;;;;;;4.49;84.04;100830.88;5074197;28;20040;-45
2023/04/14 02:48:14;;;;;;;20.02;12.52;;;;;;;4.47;83.90;100835.78;5075097;28;20569;-43
2023/04/14 02:50:43;;;;;;;20.10;12.38;;;;;;;4.43;83.50;100836.56;5075263;28;20031;-44
2023/04/14 02:53:09;;;;;;;24.27;12.60;;;;;;;4.41;84.45;100833.28;5075111;28;20032;-43
2023/04/14 02:55:36;;;;;;;20.02;12.60;;;;;;;4.31;84.53;100825.81;5075294;28;20465;-44
2023/04/14 02:58:02;;;;;;;20.90;12.73;;;;;;;4.38;84.55;100840.09;5073726;28;20481;-44
2023/04/14 03:00:28;;;;;;;19.42;12.45;;;;;;;4.32;84.36;100839.25;5074985;28;20032;-46
2023/04/14 03:02:54;;;;;;;22.83;12.50;;;;;;;4.29;84.55;100839.78;5071983;28;20032;-41
2023/04/14 03:05:20;;;;;;;18.77;12.32;;;;;;;4.28;84.46;100837.31;5073769;28;20036;-44
2023/04/14 03:07:46;;;;;;;19.85;12.57;;;;;;;4.24;85.14;100836.19;5073614;28;20021;-43
2023/04/14 03:10:12;;;;;;;20.77;12.57;;;;;;;4.24;85.35;100845.22;5074919;28;20021;-43
2023/04/14 03:12:39;;;;;;;19.10;12.23;;;;;;;4.26;85.88;100837.56;5074839;28;20132;-44
2023/04/14 03:15:06;;;;;;;21.00;12.30;;;;;;;4.30;85.83;100835.13;5074495;28;20064;-42
2023/04/14 03:17:32;;;;;;;21.98;12.70;;;;;;;4.29;85.31;100833.47;5074805;28;20043;-43
2023/04/14 03:19:59;;;;;;;19.95;13.25;;;;;;;4.29;85.56;100837.06;5073261;28;20887;-46
2023/04/14 03:22:28;;;;;;;21.45;14.15;;;;;;;4.25;85.71;100838.66;5074705;28;20032;-45
2023/04/14 03:24:57;;;;;;;20.80;12.48;;;;;;;4.23;86.74;100829.88;5074802;28;20101;-46
2023/04/14 03:27:28;;;;;;;21.65;12.88;;;;;;;4.23;85.84;100846.31;5074463;28;20120;-43
2023/04/14 03:29:57;;;;;;;21.58;13.00;;;;;;;4.24;86.59;100833.47;5074516;28;20035;-43
2023/04/14 03:32:25;;;;;;;20.83;12.82;;;;;;;4.23;86.64;100843.56;5074492;28;20028;-43
2023/04/14 03:34:56;;;;;;;19.83;12.48;;;;;;;4.21;86.53;100830.16;5074314;28;20025;-43
2023/04/14 03:37:24;;;;;;;21.30;12.98;;;;;;;4.13;86.33;100829.81;5073035;28;20477;-43
2023/04/14 03:39:51;;;;;;;20.05;12.30;;;;;;;4.18;87.00;100835.34;5074584;28;20061;-42
2023/04/14 03:42:19;;;;;;;20.42;12.93;;;;;;;4.15;86.79;100833.97;5074300;28;20064;-47
2023/04/14 03:44:50;;;;;;;20.67;13.20;;;;;;;4.20;86.61;100835.91;5073233;28;20382;-42
2023/04/14 03:47:17;;;;;;;21.35;12.32;;;;;;;4.19;86.59;100831.50;5074302;28;20034;-42
2023/04/14 03:49:46;;;;;;;20.63;12.27;;;;;;;4.07;86.86;100831.69;5074247;28;20024;-46
2023/04/14 03:52:13;;;;;;;21.50;12.73;;;;;;;4.10;86.88;100844.84;5074464;28;20028;-44
2023/04/14 03:54:41;;;;;;;19.77;12.60;;;;;;;3.88;86.81;100817.59;5074326;28;20107;-44
2023/04/14 03:57:09;;;;;;;19.52;12.40;;;;;;;4.02;87.31;100850.81;5073332;28;20044;-43
2023/04/14 03:59:37;;;;;;;22.05;13.50;;;;;;;3.99;87.54;100860.38;5074198;28;20025;-42
2023/04/14 04:02:04;;;;;;;19.02;12.20;;;;;;;3.99;87.65;100857.66;5078231;28;20061;-43
2023/04/14 04:04:30;;;;;;;18.70;12.00;;;;;;;3.98;88.41;100856.00;5089850;28;20020;-42
2023/04/14 04:06:56;;;;;;;20.90;12.90;;;;;;;3.97;88.47;100861.75;5092827;28;20043;-43
2023/04/14 04:09:23;;;;;;;22.13;12.75;;;;;;;3.95;88.58;100861.16;5093981;28;20032;-43
2023/04/14 04:11:51;;;;;;;20.25;13.27;;;;;;;3.86;88.55;100849.88;5093891;28;20123;-42
2023/04/14 04:14:18;;;;;;;19.80;13.07;;;;;;;3.90;89.18;100849.09;5094223;28;20035;-43
2023/04/14 04:16:48;;;;;;;20.40;12.57;;;;;;;3.85;88.99;100840.00;5094006;28;20024;-44
2023/04/14 04:19:14;;;;;;;18.80;12.35;;;;;;;3.87;88.09;100854.25;5093925;28;20036;-42
2023/04/14 04:21:43;;;;;;;20.50;12.90;;;;;;;3.85;88.52;100849.06;5093301;28;20051;-43
2023/04/14 04:24:11;;;;;;;19.08;12.43;;;;;;;3.87;88.92;100866.00;5093599;28;20476;-42
2023/04/14 04:26:36;;;;;;;20.35;12.98;;;;;;;3.83;88.80;100861.31;5093363;28;20020;-42
2023/04/14 04:29:05;;;;;;;22.08;13.23;;;;;;;3.84;89.03;100866.56;5093612;28;20047;-44
2023/04/14 04:31:32;;;;;;;19.42;12.52;;;;;;;3.86;89.48;100853.44;5093469;28;20115;-43
2023/04/14 04:33:58;;;;;;;21.55;13.18;;;;;;;3.78;88.63;100859.38;5093663;28;20054;-43
2023/04/14 04:36:27;;;;;;;20.98;13.60;;;;;;;3.82;88.72;100870.66;5093517;28;20028;-44
2023/04/14 04:38:52;;;;;;;21.13;13.30;;;;;;;3.83;88.59;100867.63;5093229;28;20048;-43
2023/04/14 04:41:21;;;;;;;22.20;13.25;;;;;;;3.80;89.28;100867.34;5093106;28;20016;-42
2023/04/14 04:43:47;;;;;;;22.48;12.90;;;;;;;3.84;89.88;100869.28;5093350;28;20024;-42
2023/04/14 04:46:41;;;;;;;20.45;13.07;;;;;;;3.84;89.40;100869.28;5093164;28;20046;-42
2023/04/14 04:49:07;;;;;;;19.17;12.57;;;;;;;3.81;89.08;100869.00;5093020;28;20031;-42
2023/04/14 04:51:32;;;;;;;22.90;12.80;;;;;;;3.82;90.02;100863.25;5092925;28;20020;-46
2023/04/14 04:53:57;;;;;;;22.45;12.98;;;;;;;3.79;89.25;100873.88;5093275;28;20378;-46
2023/04/14 04:56:23;;;;;;;21.23;13.63;;;;;;;3.79;89.47;100873.88;5091834;28;20580;-46
2023/04/14 04:58:48;;;;;;;21.48;13.52;;;;;;;3.74;90.06;100867.28;5092890;28;20035;-46
2023/04/14 05:01:18;;;;;;;21.60;13.45;;;;;;;3.74;90.18;100861.81;5092923;28;20067;-46
2023/04/14 05:03:44;;;;;;;21.27;13.60;;;;;;;3.79;90.72;100869.22;5091382;28;20042;-43
2023/04/14 05:06:09;;;;;;;22.50;13.40;;;;;;;3.81;90.89;100860.78;5090306;28;20032;-45
2023/04/14 05:08:34;;;;;;;20.90;13.55;;;;;;;3.84;89.80;100858.34;5091737;28;20483;-44
2023/04/14 05:11:00;;;;;;;22.95;13.52;;;;;;;3.89;90.54;100858.38;5092758;28;20035;-46
2023/04/14 05:13:25;;;;;;;25.33;13.35;;;;;;;3.94;90.25;100863.06;5092771;28;20085;-44
2023/04/14 05:15:50;;;;;;;20.88;13.45;;;;;;;3.93;89.85;100850.47;5092638;28;20039;-44
2023/04/14 05:18:16;;;;;;;20.52;13.15;;;;;;;3.97;90.99;100850.78;5092916;28;20103;-44
2023/04/14 05:20:41;;;;;;;19.73;13.00;;;;;;;3.97;90.73;100851.59;5092706;28;20077;-43
2023/04/14 05:23:07;;;;;;;21.00;12.80;;;;;;;3.98;90.08;100853.25;5092622;28;20031;-43
2023/04/14 05:25:32;;;;;;;21.10;12.65;;;;;;;3.97;89.83;100859.00;5092634;28;20063;-44
2023/04/14 05:27:57;;;;;;;21.38;13.00;;;;;;;3.96;90.05;100854.63;5092258;28;20055;-45
2023/04/14 05:30:22;;;;;;;21.17;13.20;;;;;;;3.95;90.87;100866.66;5092449;28;20369;-43
2023/04/14 05:32:48;;;;;;;21.08;13.00;;;;;;;4.00;91.05;100864.78;5092521;28;20021;-43
2023/04/14 05:35:13;;;;;;;21.17;13.00;;;;;;;4.01;90.53;100865.59;5092351;28;20020;-42
2023/04/14 05:37:38;;;;;;;21.58;12.75;;;;;;;4.05;90.38;100861.25;5092340;28;20020;-42
2023/04/14 05:40:04;;;;;;;19.55;12.57;;;;;;;4.13;90.76;100868.13;5092064;28;20595;-43
2023/04/14 05:42:30;;;;;;;20.20;12.77;;;;;;;4.17;90.66;100870.09;5090925;28;20028;-43
2023/04/14 05:44:55;;;;;;;20.92;13.05;;;;;;;4.19;90.82;100869.84;5092304;28;20537;-42
2023/04/14 05:47:21;;;;;;;22.77;13.82;;;;;;;4.13;90.50;100857.19;5090959;28;20062;-43
2023/04/14 05:49:46;;;;;;;20.83;12.85;;;;;;;4.22;91.31;100863.81;5092082;28;20566;-43
2023/04/14 05:52:11;;;;;;;21.95;13.55;;;;;;;4.24;90.86;100858.09;5092257;28;20051;-44
2023/04/14 05:54:36;;;;;;;21.17;12.85;;;;;;;4.25;91.29;100862.50;5092081;28;20031;-43
2023/04/14 05:57:02;;;;;;;21.98;13.65;;;;;;;4.27;90.78;100863.03;5092098;28;20358;-43
2023/04/14 05:59:27;;;;;;;21.05;13.20;;;;;;;4.31;91.05;100864.97;5091913;28;20028;-43
2023/04/14 06:01:52;;;;;;;23.08;13.27;;;;;;;4.34;91.03;100866.41;5091901;28;20031;-42
2023/04/14 06:04:17;;;;;;;21.35;12.98;;;;;;;4.41;91.54;100875.19;5087546;28;20193;-42
2023/04/14 06:06:43;;;;;;;21.90;13.30;;;;;;;4.43;90.99;100856.59;5091691;28;20115;-44
2023/04/14 06:09:08;;;;;;;22.50;14.30;;;;;;;4.52;91.10;100863.22;5088341;28;20028;-43
2023/04/14 06:11:33;;;;;;;21.42;13.93;;;;;;;4.57;90.64;100870.66;5091670;28;20028;-44
2023/04/14 06:14:01;;;;;;;20.85;13.68;;;;;;;4.60;90.87;100858.31;5091616;28;20106;-43
2023/04/14 06:16:26;;;;;;;22.90;12.82;;;;;;;4.69;90.78;100870.44;5091820;28;20028;-43
2023/04/14 06:18:52;;;;;;;20.95;13.23;;;;;;;4.77;91.38;100863.63;5091609;28;20016;-43
2023/04/14 06:21:17;;;;;;;20.95;13.20;;;;;;;4.79;91.32;100856.78;5091705;28;20100;-45
2023/04/14 06:23:42;;;;;;;21.33;12.75;;;;;;;4.88;90.96;100857.06;5091772;28;20032;-46
2023/04/14 06:26:07;;;;;;;21.27;13.23;;;;;;;4.91;90.89;100848.31;5091751;28;20028;-43
2023/04/14 06:28:33;;;;;;;20.70;13.45;;;;;;;5.01;90.65;100861.25;5091708;28;20542;-44
2023/04/14 06:30:59;;;;;;;21.40;12.77;;;;;;;5.09;91.00;100854.41;5090284;28;20394;-45
2023/04/14 06:33:24;;;;;;;21.63;12.82;;;;;;;5.17;90.72;100847.59;5091915;28;20020;-44
2023/04/14 06:35:50;;;;;;;20.83;12.98;;;;;;;5.26;91.04;100854.22;5091580;28;20366;-43
2023/04/14 06:38:15;;;;;;;20.73;12.70;;;;;;;5.35;90.52;100852.59;5091521;28;20456;-43
2023/04/14 06:40:40;;;;;;;20.83;12.80;;;;;;;5.45;90.75;100849.88;5091611;28;20026;-44
2023/04/14 06:43:09;;;;;;;19.48;13.10;;;;;;;5.57;89.91;100854.28;5091692;28;20388;-44
2023/04/14 06:45:35;;;;;;;21.48;13.20;;;;;;;5.67;89.71;100861.69;5090092;28;20028;-44
2023/04/14 06:48:00;;;;;;;19.80;12.88;;;;;;;5.80;90.09;100858.41;5091456;28;20538;-44
2023/04/14 06:50:25;;;;;;;20.40;13.20;;;;;;;5.82;88.61;100855.38;5091455;28;20071;-45
2023/04/14 06:52:51;;;;;;;22.00;13.63;;;;;;;5.91;88.72;100862.78;5091547;28;20036;-47
2023/04/14 06:55:16;;;;;;;21.63;13.52;;;;;;;5.98;88.75;100857.03;5091567;28;20020;-46
2023/04/14 06:57:41;;;;;;;22.67;14.48;;;;;;;6.08;88.95;100859.81;5091340;28;20024;-45
2023/04/14 07:00:09;;;;;;;22.80;14.00;;;;;;;5.99;88.48;100834.00;5091325;28;20452;-43
2023/04/14 07:02:35;;;;;;;22.30;14.73;;;;;;;6.20;88.75;100856.78;5091711;28;20020;-44
2023/04/14 07:05:00;;;;;;;21.58;13.30;;;;;;;6.37;89.63;100836.44;5087279;28;20529;-46
2023/04/14 07:07:25;;;;;;;21.58;13.25;;;;;;;6.61;88.80;100839.41;5091410;28;20063;-41
2023/04/14 07:09:51;;;;;;;21.25;13.70;;;;;;;6.78;87.74;100827.25;5090992;28;20054;-42
2023/04/14 07:12:16;;;;;;;21.40;13.50;;;;;;;7.02;87.32;100833.72;5091351;28;20047;-42
2023/04/14 07:14:42;;;;;;;20.63;13.38;;;;;;;7.14;86.37;100825.13;5091203;28;20020;-42
2023/04/14 07:17:08;;;;;;;21.30;13.98;;;;;;;7.30;86.02;100825.06;5089973;28;20048;-42
2023/04/14 07:19:33;;;;;;;19.42;12.93;;;;;;;7.43;86.03;100818.09;5091442;28;20024;-44
2023/04/14 07:21:58;;;;;;;21.08;13.18;;;;;;;7.51;83.67;100822.97;5090829;28;20465;-43
2023/04/14 07:24:24;;;;;;;22.48;13.23;;;;;;;7.50;83.06;100826.84;5090931;28;20028;-43
2023/04/14 07:26:49;;;;;;;22.15;13.60;;;;;;;7.56;83.81;100833.13;5090798;28;20028;-42
2023/04/14 07:29:15;;;;;;;21.15;13.60;;;;;;;7.62;82.94;100821.81;5090600;28;20027;-42
2023/04/14 07:31:41;;;;;;;19.42;12.98;;;;;;;7.71;81.95;100830.25;5091730;28;20024;-42
2023/04/14 07:34:07;;;;;;;20.55;13.38;;;;;;;7.74;80.66;100821.44;5093006;28;20105;-42
2023/04/14 07:36:33;;;;;;;20.50;13.20;;;;;;;7.79;81.08;100824.13;5091850;28;20039;-44
2023/04/14 07:38:58;;;;;;;20.55;12.93;;;;;;;7.84;80.56;100820.53;5093327;28;20547;-42
2023/04/14 07:41:25;;;;;;;20.35;12.95;;;;;;;7.87;80.15;100817.19;5092522;28;20107;-43
2023/04/14 07:43:54;;;;;;;20.45;13.40;;;;;;;7.95;79.65;100811.06;5092873;28;20154;-42
2023/04/14 07:46:20;;;;;;;20.23;12.93;;;;;;;8.03;79.87;100817.06;5092998;28;20043;-44
2023/04/14 07:48:46;;;;;;;20.52;13.40;;;;;;;8.06;79.17;100805.47;5092934;28;20393;-43
2023/04/14 07:51:11;;;;;;;19.58;12.80;;;;;;;8.08;78.47;100806.81;5092887;28;20031;-43
2023/04/14 07:53:41;;;;;;;20.45;13.05;;;;;;;8.18;77.92;100805.06;5092513;28;20453;-43
2023/04/14 07:56:06;;;;;;;21.13;12.77;;;;;;;8.25;77.58;100816.59;5092931;28;20027;-43
2023/04/14 07:58:32;;;;;;;19.20;12.18;;;;;;;8.34;77.50;100808.50;5090947;28;20481;-43
2023/04/14 08:00:57;;;;;;;19.38;12.40;;;;;;;8.38;76.95;100795.78;5087251;28;20055;-43
2023/04/14 08:03:22;;;;;;;19.85;12.48;;;;;;;8.50;77.07;100798.16;5091650;28;20031;-43
2023/04/14 08:05:48;;;;;;;20.33;12.45;;;;;;;8.59;77.18;100804.66;5091195;28;20032;-42
2023/04/14 08:08:13;;;;;;;19.20;12.13;;;;;;;8.65;75.68;100809.00;5092386;28;20050;-44
2023/04/14 08:10:40;;;;;;;19.85;12.20;;;;;;;8.72;75.80;100808.63;5092023;28;20059;-42
2023/04/14 08:13:05;;;;;;;20.77;12.35;;;;;;;8.78;75.68;100804.72;5092425;28;20040;-43
2023/04/14 08:15:31;;;;;;;19.83;12.00;;;;;;;8.86;75.44;100811.50;5092385;28;20031;-42
2023/04/14 08:17:56;;;;;;;20.38;11.80;;;;;;;8.94;74.47;100808.09;5090893;28;20039;-44
2023/04/14 08:20:21;;;;;;;19.33;12.02;;;;;;;8.99;74.04;100808.03;5091991;28;20071;-42
2023/04/14 08:22:47;;;;;;;21.55;12.27;;;;;;;9.05;72.71;100809.59;5092387;28;20035;-43
2023/04/14 08:25:13;;;;;;;20.80;12.23;;;;;;;9.12;72.67;100812.00;5092360;28;20089;-43
2023/04/14 08:27:38;;;;;;;18.73;11.63;;;;;;;9.24;74.46;100803.25;5092030;28;20032;-42
2023/04/14 08:30:04;;;;;;;20.08;12.10;;;;;;;9.29;74.34;100807.88;5092184;28;20818;-42
2023/04/14 08:32:30;;;;;;;20.50;12.05;;;;;;;9.25;73.55;100791.09;5092134;28;20027;-42
2023/04/14 08:34:55;;;;;;;20.48;12.02;;;;;;;9.45;73.24;100806.53;5091788;28;20481;-43
2023/04/14 08:37:21;;;;;;;20.27;11.98;;;;;;;9.56;72.31;100814.66;5091787;28;20496;-43
2023/04/14 08:39:47;;;;;;;21.27;12.20;;;;;;;9.64;72.52;100803.78;5091224;28;20152;-43
2023/04/14 08:42:14;;;;;;;20.73;12.70;;;;;;;9.86;78.54;100801.47;5091622;28;20051;-43
2023/04/14 08:44:40;;;;;;;26.10;13.23;;;;;;;10.24;86.20;100804.13;5091426;28;20502;-44
2023/04/14 08:47:06;;;;;;;21.75;12.23;;;;;;;10.25;75.36;100803.00;5091474;28;20055;-43
2023/04/14 08:49:44;;;;;;;21.13;12.45;;;;;;;10.30;72.63;100816.72;5091528;28;20042;-43
2023/04/14 08:52:11;;;;;;;21.98;12.00;;;;;;;10.33;72.01;100816.13;5091173;28;20728;-43
2023/04/14 08:54:42;;;;;;;22.90;11.63;;;;;;;10.30;70.42;100805.66;5091151;28;20035;-43
2023/04/14 08:57:09;;;;;;;24.00;11.57;;;;;;;10.34;70.37;100812.25;5086478;28;20184;-42
2023/04/14 08:59:36;;;;;;;19.67;11.30;;;;;;;10.38;69.20;100810.53;5090824;28;20373;-43
2023/04/14 09:02:04;;;;;;;19.13;11.60;;;;;;;10.48;69.58;100808.72;5091545;28;20032;-43
2023/04/14 09:04:32;;;;;;;19.20;11.40;;;;;;;10.47;67.43;100805.09;5091614;28;20112;-43
2023/04/14 09:06:57;;;;;;;19.25;11.57;;;;;;;10.51;68.07;100808.06;5091362;28;20461;-43
2023/04/14 09:09:23;;;;;;;19.50;11.07;;;;;;;10.57;66.82;100802.13;5091349;28;20465;-43
2023/04/14 09:11:50;;;;;;;17.10;10.15;;;;;;;10.57;66.02;100799.38;5086053;28;20063;-43
2023/04/14 09:14:17;;;;;;;16.52;10.23;;;;;;;10.63;64.98;100797.31;5090924;28;20098;-42
2023/04/14 09:16:43;;;;;;;18.02;10.30;;;;;;;10.64;63.42;100784.31;5089871;28;20020;-43
2023/04/14 09:19:09;;;;;;;17.90;10.30;;;;;;;10.65;64.37;100780.41;5090143;28;20443;-44
2023/04/14 09:21:36;;;;;;;17.40;10.15;;;;;;;10.80;65.16;100793.09;5090003;28;20047;-43
2023/04/14 09:24:02;;;;;;;18.50;10.30;;;;;;;10.83;64.31;100798.03;5091304;28;20028;-44
2023/04/14 09:26:27;;;;;;;17.40;10.20;;;;;;;10.92;64.46;100796.19;5091375;28;20038;-43
2023/04/14 09:28:53;;;;;;;15.38;10.18;;;;;;;10.93;62.83;100795.06;5090964;28;20143;-44
2023/04/14 09:31:18;;;;;;;17.48;10.30;;;;;;;10.97;63.06;100798.03;5091290;28;20040;-44
2023/04/14 09:33:47;;;;;;;15.18;10.02;;;;;;;11.08;65.64;100785.59;5091096;28;20093;-44
2023/04/14 09:36:23;;;;;;;17.33;10.57;;;;;;;11.16;66.36;100784.84;5090901;28;20443;-44
2023/04/14 09:38:50;;;;;;;16.15;10.40;;;;;;;11.24;64.80;100786.88;5090727;28;20082;-44
2023/04/14 09:41:21;;;;;;;17.48;10.65;;;;;;;11.33;64.44;100770.34;5089435;28;20385;-43
2023/04/14 09:43:47;;;;;;;19.33;10.30;;;;;;;11.45;66.42;100774.50;5090805;28;20028;-44
2023/04/14 09:46:14;;;;;;;15.52;9.60;;;;;;;11.54;70.71;100770.66;5090981;28;20069;-42
2023/04/14 09:48:55;;;;;;;19.08;11.05;;;;;;;11.55;66.19;100771.47;5090749;28;20031;-42
2023/04/14 09:51:28;;;;;;;19.15;10.60;;;;;;;11.66;67.55;100772.88;5090825;28;20059;-44
2023/04/14 09:53:59;;;;;;;15.20;10.73;;;;;;;11.67;64.04;100768.97;5090317;28;20469;-44
2023/04/14 09:56:26;;;;;;;16.17;10.60;;;;;;;11.74;66.35;100764.91;5086081;28;20063;-44
2023/04/14 09:58:59;;;;;;;16.13;10.00;;;;;;;11.82;67.51;100759.44;5090669;28;20024;-44
2023/04/14 10:01:30;;;;;;;15.63;10.27;;;;;;;11.86;62.74;100756.84;5090804;28;20036;-43
2023/04/14 10:03:55;;;;;;;16.45;10.18;;;;;;;12.00;67.27;100754.03;5090264;28;20024;-44
2023/04/14 10:06:22;;;;;;;15.95;10.25;;;;;;;12.01;64.75;100758.44;5089838;28;20055;-43
2023/04/14 10:08:50;;;;;;;16.88;10.57;;;;;;;12.06;63.46;100754.72;5090217;28;20055;-45
2023/04/14 10:11:22;;;;;;;16.77;10.32;;;;;;;12.20;68.26;100752.66;5090357;28;20024;-45
2023/04/14 10:13:56;;;;;;;15.93;10.80;;;;;;;12.11;62.41;100747.06;5090682;28;20496;-45
2023/04/14 10:16:23;;;;;;;14.13;9.82;;;;;;;12.16;59.59;100751.66;5087624;28;20020;-43
2023/04/14 10:18:49;;;;;;;15.65;10.13;;;;;;;12.23;61.23;100745.66;5090464;28;20551;-43
2023/04/14 10:21:15;;;;;;;15.80;10.18;;;;;;;12.30;64.67;100743.25;5090335;28;20056;-43
2023/04/14 10:23:41;;;;;;;17.55;10.52;;;;;;;12.37;66.99;100740.00;5089807;28;20114;-43
2023/04/14 10:26:08;;;;;;;13.73;10.00;;;;;;;12.42;67.08;100739.84;5090318;28;20119;-43
2023/04/14 10:28:39;;;;;;;16.10;10.25;;;;;;;12.38;62.61;100723.03;5090132;28;20024;-42
2023/04/14 10:31:08;;;;;;;15.98;10.20;;;;;;;12.43;59.27;100728.41;5090197;28;20043;-46
2023/04/14 10:33:37;;;;;;;15.63;9.85;;;;;;;12.44;60.44;100724.50;5090210;28;20081;-43
2023/04/14 10:36:02;;;;;;;14.45;10.15;;;;;;;12.49;60.30;100723.53;5090149;28;20572;-44
2023/04/14 10:38:45;;;;;;;15.55;10.23;;;;;;;12.53;60.62;100730.09;5090087;28;20051;-43
2023/04/14 10:41:11;;;;;;;17.83;10.27;;;;;;;12.62;61.24;100733.72;5090685;28;20032;-44
2023/04/14 10:43:37;;;;;;;14.77;9.88;;;;;;;12.68;59.88;100725.22;5089810;28;20482;-43
2023/04/14 10:46:04;;;;;;;15.70;10.05;;;;;;;12.68;63.58;100706.63;5089333;28;20028;-45
2023/04/14 10:48:40;;;;;;;13.95;9.45;;;;;;;12.76;63.78;100710.53;5088940;28;20446;-44
2023/04/14 10:51:09;;;;;;;14.05;10.15;;;;;;;12.76;61.08;100705.81;5082139;28;20021;-43
2023/04/14 10:53:45;;;;;;;15.38;10.00;;;;;;;12.94;64.40;100714.16;5087719;28;20090;-43
2023/04/14 10:56:11;;;;;;;15.52;10.07;;;;;;;12.99;61.82;100722.31;5090491;28;20082;-42
2023/04/14 10:58:37;;;;;;;15.35;10.10;;;;;;;13.04;61.66;100715.78;5090493;28;20064;-43
2023/04/14 11:01:29;;;;;;;15.25;10.48;;;;;;;13.03;58.34;100716.94;5090523;28;20036;-44
2023/04/14 11:03:55;;;;;;;17.02;10.60;;;;;;;13.01;56.95;100713.69;5090094;28;20042;-44
2023/04/14 11:06:49;;;;;;;15.85;10.43;;;;;;;13.06;59.29;100699.63;5092268;28;20028;-43
2023/04/14 11:09:41;;;;;;;18.83;10.40;;;;;;;13.11;60.62;100693.91;5092853;28;20489;-42
2023/04/14 11:12:23;;;;;;;15.77;10.40;;;;;;;13.18;61.92;100690.63;5090020;28;20870;-43
2023/04/14 11:14:53;;;;;;;13.93;10.07;;;;;;;13.23;63.18;100684.91;5093860;28;20035;-45
2023/04/14 11:17:20;;;;;;;14.88;10.20;;;;;;;13.34;61.09;100697.34;5091896;28;20111;-44